Buckcreek, Iowa
Current Conditions -  °F | °C
As of 2:35 AM on Monday 26 Jan 2015 (Local Time) from KOLZ Reporting Station
Overcast Overcast  
Wind Chill: 13°   Ceiling: 1800
Heat Index: 23°   Visibility: 10mi
Dew Point: 16°   Wind: 9mph
Humidity: 74%   Direction: 170°S
Pressure: 29.98"   Gusts: NA
Location:  42.8281°N, 92.1565°W
Report Text: KOLZ 260835Z AUTO 17008KT 10SM OVC018 M05/M09 A2998 RMK AO2
Loading
Personal Weather Stations






























Interactive Weather Map New forecast layout! Learn more

10-Day Weather Forecast

Advertisements
Track Severe Weather on mobile